Time;durP1;ratioP1;P1;durP2;ratioP2;P2;SDS_P1;SDS_P2;PMS_P1;PMS_P2;Temp;Humidity;BMP_temperature;BMP_pressure;BME280_temperature;BME280_humidity;BME280_pressure;Samples;Min_cycle;Max_cycle;Signal;HPM_P1;HPM_P2
2021/12/09 00:01:23;;;;;;;;;;;;;;;20.44;35.65;99612.44;7282600;19;153649;-51
2021/12/09 00:03:51;;;;;;;;;;;;;;;20.40;35.95;99610.31;7279001;19;152806;-50
2021/12/09 00:06:23;;;;;;;;;;;;;;;20.37;35.78;99612.97;7286537;19;151785;-52
2021/12/09 00:08:50;;;;;;;;;;;;;;;20.34;35.87;99614.50;7276018;19;156509;-51
2021/12/09 00:11:17;;;;;;;;;;;;;;;20.31;35.88;99611.50;7280510;19;151900;-52
2021/12/09 00:13:44;;;;;;;;;;;;;;;20.25;35.71;99610.88;7277337;19;152538;-51
2021/12/09 00:16:11;;;;;;;;;;;;;;;20.24;35.82;99600.00;7275624;19;154822;-52
2021/12/09 00:18:38;;;;;;;;;;;;;;;20.24;35.87;99605.59;7278140;19;152009;-51
2021/12/09 00:21:06;;;;;;;;;;;;;;;20.18;36.22;99604.97;7278142;19;155277;-52
2021/12/09 00:23:32;;;;;;;;;;;;;;;20.17;36.37;99602.53;7278087;19;153740;-49
2021/12/09 00:25:59;;;;;;;;;;;;;;;20.13;36.39;99605.16;7281497;19;152051;-48
2021/12/09 00:28:26;;;;;;;;;;;;;;;20.08;36.46;99599.75;7285443;19;153252;-49
2021/12/09 00:30:52;;;;;;;;;;;;;;;20.07;36.32;99598.13;7279859;19;151854;-49
2021/12/09 00:33:19;;;;;;;;;;;;;;;20.03;36.62;99604.75;7278692;19;155069;-50
2021/12/09 00:35:53;;;;;;;;;;;;;;;20.03;36.39;99602.75;7281829;19;153369;-49
2021/12/09 00:38:32;;;;;;;;;;;;;;;20.01;36.42;99599.47;7278031;19;151798;-49
2021/12/09 00:41:02;;;;;;;;;;;;;;;19.95;36.97;99596.03;7278323;19;152758;-48
2021/12/09 00:43:28;;;;;;;;;;;;;;;19.93;37.06;99600.34;7276196;19;154320;-52
2021/12/09 00:45:57;;;;;;;;;;;;;;;19.95;36.65;99606.41;7275089;19;152645;-49
2021/12/09 00:48:25;;;;;;;;;;;;;;;19.87;37.01;99604.47;7274880;19;158197;-50
2021/12/09 00:50:53;;;;;;;;;;;;;;;19.83;36.98;99609.13;7286951;19;152108;-50
2021/12/09 00:53:20;;;;;;;;;;;;;;;19.79;37.12;99608.16;7278704;19;153276;-49
2021/12/09 00:55:46;;;;;;;;;;;;;;;19.74;36.96;99608.31;7278239;19;153759;-50
2021/12/09 00:58:13;;;;;;;;;;;;;;;19.74;37.39;99611.94;7276217;19;152263;-49
2021/12/09 01:00:40;;;;;;;;;;;;;;;19.74;37.21;99619.53;7276505;19;153379;-49
2021/12/09 01:03:06;;;;;;;;;;;;;;;19.72;37.50;99621.84;7278047;19;153829;-49
2021/12/09 01:05:33;;;;;;;;;;;;;;;19.74;37.64;99625.13;7275954;19;152090;-50
2021/12/09 01:08:00;;;;;;;;;;;;;;;19.70;37.46;99630.59;7277822;19;153786;-50
2021/12/09 01:10:28;;;;;;;;;;;;;;;19.73;37.89;99631.91;7282042;19;156595;-50
2021/12/09 01:12:55;;;;;;;;;;;;;;;19.70;37.57;99627.78;7277744;19;153212;-50
2021/12/09 01:15:22;;;;;;;;;;;;;;;19.66;37.71;99637.22;7275494;19;153357;-50
2021/12/09 01:17:50;;;;;;;;;;;;;;;19.61;37.69;99638.22;7276705;19;152052;-49
2021/12/09 01:20:18;;;;;;;;;;;;;;;19.55;37.78;99642.34;7277106;19;153615;-49
2021/12/09 01:22:46;;;;;;;;;;;;;;;19.51;38.24;99645.00;7275300;19;152223;-49
2021/12/09 01:25:15;;;;;;;;;;;;;;;19.48;38.31;99650.44;7276475;19;152000;-50
2021/12/09 01:27:44;;;;;;;;;;;;;;;19.48;38.19;99658.84;7277856;19;152873;-51
2021/12/09 01:30:15;;;;;;;;;;;;;;;19.40;38.53;99659.63;7275706;19;154776;-51
2021/12/09 01:32:48;;;;;;;;;;;;;;;19.36;38.36;99656.69;7285444;19;152810;-50
2021/12/09 01:35:16;;;;;;;;;;;;;;;19.33;38.21;99654.56;7276537;19;153801;-50
2021/12/09 01:37:42;;;;;;;;;;;;;;;19.29;38.68;99650.78;7276942;19;152054;-49
2021/12/09 01:40:09;;;;;;;;;;;;;;;19.27;38.37;99652.25;7279088;19;153629;-50
2021/12/09 01:42:36;;;;;;;;;;;;;;;19.24;38.56;99653.75;7276640;19;153304;-49
2021/12/09 01:45:03;;;;;;;;;;;;;;;19.23;38.76;99651.25;7279399;19;151831;-50
2021/12/09 01:47:30;;;;;;;;;;;;;;;19.19;38.62;99665.09;7276226;19;152171;-51
2021/12/09 01:49:58;;;;;;;;;;;;;;;19.20;38.47;99668.72;7274415;19;153802;-49
2021/12/09 01:52:25;;;;;;;;;;;;;;;19.15;38.52;99664.13;7279723;19;152287;-50
2021/12/09 01:54:51;;;;;;;;;;;;;;;19.12;38.45;99667.59;7286419;19;153022;-50
2021/12/09 01:57:19;;;;;;;;;;;;;;;19.09;38.56;99674.66;7278616;19;152202;-50
2021/12/09 01:59:46;;;;;;;;;;;;;;;19.06;38.66;99683.72;7278024;19;154051;-49
2021/12/09 02:02:13;;;;;;;;;;;;;;;19.03;38.62;99681.56;7277706;19;153516;-49
2021/12/09 02:04:40;;;;;;;;;;;;;;;18.99;38.72;99688.16;7278918;19;151619;-50
2021/12/09 02:07:07;;;;;;;;;;;;;;;18.96;38.71;99686.84;7278626;19;153213;-51
2021/12/09 02:09:35;;;;;;;;;;;;;;;18.94;38.60;99691.94;7275562;19;153436;-50
2021/12/09 02:12:03;;;;;;;;;;;;;;;18.91;38.39;99687.00;7282335;19;152463;-50
2021/12/09 02:14:30;;;;;;;;;;;;;;;18.89;38.94;99692.13;7286725;19;152873;-50
2021/12/09 02:16:56;;;;;;;;;;;;;;;18.87;38.65;99693.59;7292524;19;153131;-49
2021/12/09 02:19:23;;;;;;;;;;;;;;;18.86;38.57;99703.13;7286578;19;153141;-50
2021/12/09 02:21:50;;;;;;;;;;;;;;;18.84;38.79;99702.66;7282984;19;152682;-49
2021/12/09 02:24:18;;;;;;;;;;;;;;;18.83;38.73;99714.97;7283881;19;152289;-50
2021/12/09 02:26:46;;;;;;;;;;;;;;;18.82;38.94;99704.94;7283369;19;153713;-50
2021/12/09 02:29:14;;;;;;;;;;;;;;;18.79;39.13;99711.19;7282799;19;153836;-50
2021/12/09 02:31:41;;;;;;;;;;;;;;;18.77;38.70;99710.69;7284762;19;151925;-50
2021/12/09 02:34:09;;;;;;;;;;;;;;;18.75;39.22;99718.59;7284416;19;152693;-49
2021/12/09 02:36:39;;;;;;;;;;;;;;;18.70;39.10;99713.97;7283686;19;153509;-51
2021/12/09 02:39:08;;;;;;;;;;;;;;;18.69;39.06;99714.28;7291398;19;152521;-50
2021/12/09 02:41:36;;;;;;;;;;;;;;;18.62;39.24;99717.59;7283195;19;153794;-50
2021/12/09 02:44:04;;;;;;;;;;;;;;;18.60;39.31;99722.66;7282711;19;152134;-49
2021/12/09 02:46:36;;;;;;;;;;;;;;;18.61;39.26;99724.31;7282946;19;153361;-50
2021/12/09 02:49:07;;;;;;;;;;;;;;;18.64;39.60;99724.50;7283276;19;153779;-50
2021/12/09 02:51:35;;;;;;;;;;;;;;;18.61;40.04;99727.13;7286384;19;151910;-50
2021/12/09 02:54:02;;;;;;;;;;;;;;;18.59;39.53;99733.03;7286092;19;152748;-50
2021/12/09 02:56:29;;;;;;;;;;;;;;;18.57;39.54;99731.72;7281543;19;153605;-50
2021/12/09 02:58:56;;;;;;;;;;;;;;;18.54;39.66;99730.38;7290896;19;152319;-50
2021/12/09 03:01:25;;;;;;;;;;;;;;;18.51;39.50;99735.78;7282424;19;153403;-50
2021/12/09 03:03:56;;;;;;;;;;;;;;;18.48;39.58;99736.44;7283289;19;153024;-50
2021/12/09 03:06:28;;;;;;;;;;;;;;;18.48;39.87;99748.44;7283542;19;152249;-50
2021/12/09 03:08:55;;;;;;;;;;;;;;;18.48;39.52;99736.44;7279511;19;152789;-50
2021/12/09 03:11:22;;;;;;;;;;;;;;;18.45;39.90;99737.06;7284129;19;151563;-50
2021/12/09 03:13:50;;;;;;;;;;;;;;;18.42;39.83;99737.72;7281605;19;153181;-50
2021/12/09 03:16:19;;;;;;;;;;;;;;;18.38;40.16;99739.53;7279988;19;152850;-50
2021/12/09 03:18:47;;;;;;;;;;;;;;;18.36;39.98;99736.22;7284227;19;152804;-49
2021/12/09 03:21:16;;;;;;;;;;;;;;;18.36;39.61;99739.00;7286622;19;152458;-49
2021/12/09 03:23:43;;;;;;;;;;;;;;;18.34;39.99;99749.72;7282917;19;152505;-50
2021/12/09 03:26:11;;;;;;;;;;;;;;;18.32;39.90;99743.59;7281529;19;152420;-51
2021/12/09 03:28:37;;;;;;;;;;;;;;;18.30;40.17;99746.75;7282762;19;153243;-51
2021/12/09 03:31:05;;;;;;;;;;;;;;;18.27;40.04;99741.78;7279094;19;152037;-51
2021/12/09 03:33:32;;;;;;;;;;;;;;;18.23;40.38;99752.78;7282177;19;153098;-50
2021/12/09 03:35:59;;;;;;;;;;;;;;;18.21;39.87;99755.06;7282886;19;154269;-50
2021/12/09 03:38:27;;;;;;;;;;;;;;;18.21;40.00;99754.25;7280448;19;152311;-50
2021/12/09 03:40:55;;;;;;;;;;;;;;;18.20;40.63;99758.19;7281375;19;153106;-51
2021/12/09 03:43:22;;;;;;;;;;;;;;;18.17;40.18;99758.81;7288812;19;153989;-50
2021/12/09 03:45:50;;;;;;;;;;;;;;;18.16;40.18;99755.22;7278810;19;153758;-50
2021/12/09 03:48:17;;;;;;;;;;;;;;;18.13;40.69;99758.66;7271437;19;154958;-50
2021/12/09 03:50:45;;;;;;;;;;;;;;;18.13;40.55;99769.00;7277414;19;152219;-50
2021/12/09 03:53:13;;;;;;;;;;;;;;;18.11;40.37;99760.97;7280767;19;152150;-49
2021/12/09 03:55:40;;;;;;;;;;;;;;;18.09;40.44;99763.22;7278731;19;152643;-50
2021/12/09 03:58:07;;;;;;;;;;;;;;;18.08;40.54;99769.97;7281272;19;152357;-50
2021/12/09 04:00:34;;;;;;;;;;;;;;;18.07;40.77;99770.31;7280762;19;152765;-50
2021/12/09 04:03:01;;;;;;;;;;;;;;;18.06;40.74;99763.06;7281071;19;152637;-51
2021/12/09 04:05:28;;;;;;;;;;;;;;;18.04;40.67;99762.53;7288315;19;152408;-50
2021/12/09 04:07:54;;;;;;;;;;;;;;;18.01;40.82;99765.97;7276848;19;153516;-50
2021/12/09 04:10:21;;;;;;;;;;;;;;;18.00;41.01;99770.75;7277925;19;151831;-50
2021/12/09 04:12:48;;;;;;;;;;;;;;;17.99;40.96;99765.50;7279520;19;152884;-51
2021/12/09 04:15:14;;;;;;;;;;;;;;;17.96;41.10;99783.72;7277756;19;153362;-50
2021/12/09 04:17:41;;;;;;;;;;;;;;;17.96;41.34;99771.69;7279170;19;152462;-50
2021/12/09 04:20:09;;;;;;;;;;;;;;;17.94;41.18;99774.84;7281560;19;153501;-49
2021/12/09 04:22:36;;;;;;;;;;;;;;;17.91;40.97;99783.00;7280785;19;152824;-50
2021/12/09 04:25:04;;;;;;;;;;;;;;;17.91;41.39;99783.00;7279529;19;151723;-50
2021/12/09 04:27:31;;;;;;;;;;;;;;;17.89;41.14;99794.53;7286659;19;152757;-49
2021/12/09 04:29:57;;;;;;;;;;;;;;;17.87;41.21;99794.00;7279276;19;153451;-50
2021/12/09 04:32:24;;;;;;;;;;;;;;;17.87;41.61;99795.97;7282203;19;153121;-51
2021/12/09 04:34:57;;;;;;;;;;;;;;;17.82;41.42;99794.13;7277347;19;153354;-49
2021/12/09 04:37:24;;;;;;;;;;;;;;;17.82;41.20;99794.13;7281856;19;151894;-50
2021/12/09 04:39:50;;;;;;;;;;;;;;;17.81;41.62;99800.06;7278900;19;154484;-50
2021/12/09 04:42:17;;;;;;;;;;;;;;;17.84;41.42;99802.22;7278870;19;152884;-50
2021/12/09 04:44:44;;;;;;;;;;;;;;;17.86;41.29;99800.72;7281950;19;152180;-50
2021/12/09 04:47:11;;;;;;;;;;;;;;;17.93;41.75;99811.47;7280091;19;153570;-51
2021/12/09 04:49:38;;;;;;;;;;;;;;;17.97;42.00;99813.31;7283993;19;153810;-49
2021/12/09 04:52:07;;;;;;;;;;;;;;;18.01;41.88;99813.50;7279050;19;152508;-50
2021/12/09 04:54:36;;;;;;;;;;;;;;;18.08;42.18;99822.28;7280103;19;152856;-51
2021/12/09 04:57:05;;;;;;;;;;;;;;;18.12;41.82;99818.53;7283695;19;151846;-50
2021/12/09 04:59:31;;;;;;;;;;;;;;;18.16;42.34;99822.31;7280390;19;153404;-50
2021/12/09 05:01:58;;;;;;;;;;;;;;;18.23;42.67;99824.66;7276305;19;154521;-50
2021/12/09 05:04:28;;;;;;;;;;;;;;;18.30;42.69;99835.38;7281101;19;151978;-50
2021/12/09 05:06:55;;;;;;;;;;;;;;;18.39;42.30;99844.66;7281641;19;153494;-50
2021/12/09 05:09:25;;;;;;;;;;;;;;;18.45;42.34;99846.13;7283579;19;154172;-50
2021/12/09 05:11:52;;;;;;;;;;;;;;;18.53;42.53;99848.22;7279251;19;152564;-51
2021/12/09 05:14:20;;;;;;;;;;;;;;;18.60;42.19;99856.94;7280649;19;153534;-51
2021/12/09 05:16:49;;;;;;;;;;;;;;;18.67;42.50;99857.28;7278239;19;152133;-50
2021/12/09 05:19:16;;;;;;;;;;;;;;;18.74;41.99;99852.06;7280605;19;152185;-50
2021/12/09 05:21:42;;;;;;;;;;;;;;;18.81;42.05;99851.59;7282060;19;153492;-50
2021/12/09 05:24:10;;;;;;;;;;;;;;;18.89;41.91;99854.44;7278407;19;152259;-50
2021/12/09 05:26:44;;;;;;;;;;;;;;;18.95;41.74;99858.72;7281300;19;153049;-50
2021/12/09 05:29:12;;;;;;;;;;;;;;;19.03;41.67;99859.94;7276712;19;153766;-50
2021/12/09 05:34:18;;;;;;;;;;;;;;;19.16;41.61;99864.56;7280586;19;153680;-50
2021/12/09 05:36:45;;;;;;;;;;;;;;;19.22;41.31;99859.63;7281460;19;154706;-50
2021/12/09 05:39:12;;;;;;;;;;;;;;;19.29;41.53;99873.97;7279784;19;152643;-50
2021/12/09 05:41:40;;;;;;;;;;;;;;;19.35;41.00;99878.28;7277017;19;154404;-50
2021/12/09 05:44:08;;;;;;;;;;;;;;;19.40;40.69;99878.09;7279333;19;152389;-50
2021/12/09 05:46:35;;;;;;;;;;;;;;;19.46;41.32;99885.25;7285970;19;152732;-50
2021/12/09 05:49:03;;;;;;;;;;;;;;;19.52;41.82;99890.38;7284704;19;153224;-50
2021/12/09 05:51:30;;;;;;;;;;;;;;;19.58;41.65;99882.63;7284525;19;152386;-49
2021/12/09 05:53:57;;;;;;;;;;;;;;;19.64;41.04;99888.88;7292151;19;153505;-51
2021/12/09 05:56:24;;;;;;;;;;;;;;;19.70;40.94;99890.38;7288302;19;151830;-50
2021/12/09 05:58:50;;;;;;;;;;;;;;;19.74;41.02;99892.19;7283762;19;152510;-50
2021/12/09 06:01:17;;;;;;;;;;;;;;;19.78;40.90;99890.38;7287355;19;153283;-50
2021/12/09 06:03:44;;;;;;;;;;;;;;;19.83;40.63;99892.19;7286357;19;152185;-50
2021/12/09 06:06:11;;;;;;;;;;;;;;;19.88;40.54;99895.69;7284103;19;153362;-50
2021/12/09 06:08:39;;;;;;;;;;;;;;;19.92;40.82;99893.84;7283847;19;152901;-51
2021/12/09 06:11:08;;;;;;;;;;;;;;;19.98;40.92;99886.13;7286946;19;151918;-50
2021/12/09 06:13:37;;;;;;;;;;;;;;;20.03;40.54;99890.72;7284637;19;152304;-50
2021/12/09 06:16:05;;;;;;;;;;;;;;;20.06;40.58;99884.44;7290691;19;154600;-50
2021/12/09 06:18:32;;;;;;;;;;;;;;;20.11;40.43;99889.88;7283735;19;153306;-49
2021/12/09 06:21:00;;;;;;;;;;;;;;;20.15;41.01;99890.88;7284993;19;155453;-51
2021/12/09 06:23:27;;;;;;;;;;;;;;;20.21;41.14;99889.56;7284252;19;152213;-50
2021/12/09 06:25:53;;;;;;;;;;;;;;;20.24;41.39;99889.72;7285312;19;152175;-50
2021/12/09 06:28:20;;;;;;;;;;;;;;;20.30;41.22;99887.59;7285855;19;153389;-50
2021/12/09 06:30:47;;;;;;;;;;;;;;;20.34;41.02;99894.19;7283754;19;153699;-50
2021/12/09 06:33:14;;;;;;;;;;;;;;;20.38;40.31;99896.00;7286844;19;152670;-50
2021/12/09 06:35:41;;;;;;;;;;;;;;;20.41;40.47;99898.13;7285107;19;155907;-50
2021/12/09 06:38:14;;;;;;;;;;;;;;;20.46;40.27;99899.09;7291648;19;152182;-50
2021/12/09 06:40:41;;;;;;;;;;;;;;;20.47;40.32;99903.56;7286563;19;153377;-50
2021/12/09 06:43:08;;;;;;;;;;;;;;;20.53;40.28;99891.84;7284118;19;152514;-49
2021/12/09 06:45:35;;;;;;;;;;;;;;;20.55;40.42;99889.50;7284197;19;152416;-50
2021/12/09 06:48:02;;;;;;;;;;;;;;;20.59;40.29;99890.47;7283733;19;153821;-50
2021/12/09 06:50:29;;;;;;;;;;;;;;;20.63;40.22;99882.22;7287271;19;151905;-50
2021/12/09 06:52:56;;;;;;;;;;;;;;;20.67;40.28;99886.03;7283605;19;153070;-50
2021/12/09 06:55:23;;;;;;;;;;;;;;;20.71;40.21;99884.19;7284447;19;155307;-50
2021/12/09 06:57:50;;;;;;;;;;;;;;;20.74;40.57;99892.75;7282089;19;151980;-50
2021/12/09 07:00:25;;;;;;;;;;;;;;;20.76;40.61;99893.22;7292788;19;152559;-50
2021/12/09 07:02:52;;;;;;;;;;;;;;;20.80;40.22;99894.19;7286153;19;152038;-50
2021/12/09 07:05:21;;;;;;;;;;;;;;;20.83;40.36;99899.16;7283666;19;153729;-50
2021/12/09 07:07:50;;;;;;;;;;;;;;;20.86;40.11;99900.47;7283234;19;153981;-50
2021/12/09 07:10:18;;;;;;;;;;;;;;;20.90;40.19;99911.84;7283079;19;152008;-50
2021/12/09 07:12:45;;;;;;;;;;;;;;;20.92;39.58;99920.75;7282484;19;153393;-50
2021/12/09 07:15:13;;;;;;;;;;;;;;;20.96;40.01;99932.97;7285132;19;154262;-51
2021/12/09 07:17:40;;;;;;;;;;;;;;;20.97;40.26;99934.63;7286474;19;151958;-50
2021/12/09 07:20:09;;;;;;;;;;;;;;;21.00;40.20;99936.75;7292038;19;153295;-50
2021/12/09 07:22:36;;;;;;;;;;;;;;;21.07;39.44;99931.44;7284323;19;152240;-50
2021/12/09 07:25:04;;;;;;;;;;;;;;;21.07;39.29;99937.06;7284902;19;153053;-50
2021/12/09 07:27:31;;;;;;;;;;;;;;;21.12;39.08;99937.69;7281761;19;154042;-50
2021/12/09 07:29:58;;;;;;;;;;;;;;;21.14;39.15;99941.03;7282937;19;151794;-50
2021/12/09 07:32:32;;;;;;;;;;;;;;;21.18;39.14;99944.78;7282690;19;152112;-50
2021/12/09 07:35:00;;;;;;;;;;;;;;;21.23;39.82;99955.03;7283568;19;153844;-50
2021/12/09 07:37:27;;;;;;;;;;;;;;;21.22;38.34;99965.44;7282033;19;151964;-53
2021/12/09 07:39:54;;;;;;;;;;;;;;;20.97;36.66;99957.91;7284110;19;151955;-50
2021/12/09 07:42:21;;;;;;;;;;;;;;;21.03;36.71;99973.41;7291481;19;154185;-50
2021/12/09 07:44:48;;;;;;;;;;;;;;;21.05;36.62;99981.50;7285100;19;154827;-50
2021/12/09 07:47:15;;;;;;;;;;;;;;;21.05;36.39;99979.53;7285004;19;153563;-50
2021/12/09 07:49:44;;;;;;;;;;;;;;;21.07;36.02;99990.44;7282214;19;152835;-50
2021/12/09 07:52:11;;;;;;;;;;;;;;;21.09;36.02;100002.13;7284328;19;152871;-51
2021/12/09 07:54:38;;;;;;;;;;;;;;;21.11;36.23;100005.44;7281797;19;153982;-50
2021/12/09 07:57:05;;;;;;;;;;;;;;;21.11;35.83;100002.63;7284883;19;151922;-50
2021/12/09 07:59:32;;;;;;;;;;;;;;;21.12;36.00;100005.09;7285270;19;152668;-51
2021/12/09 08:02:00;;;;;;;;;;;;;;;21.13;35.97;100014.38;7285411;19;153631;-51
2021/12/09 08:04:27;;;;;;;;;;;;;;;21.13;36.21;100012.41;7291556;19;154259;-51
2021/12/09 08:06:56;;;;;;;;;;;;;;;21.14;36.14;100019.66;7283116;19;152634;-51
2021/12/09 08:09:22;;;;;;;;;;;;;;;21.15;35.84;100024.13;7281538;19;151906;-51
2021/12/09 08:11:50;;;;;;;;;;;;;;;21.15;35.86;100034.53;7284125;19;152705;-51
2021/12/09 08:14:19;;;;;;;;;;;;;;;21.14;35.74;100044.94;7283821;19;152143;-51
2021/12/09 08:16:56;;;;;;;;;;;;;;;21.15;35.76;100032.56;7285718;19;151877;-51
2021/12/09 08:19:24;;;;;;;;;;;;;;;21.12;35.76;100035.19;7283635;19;152307;-51
2021/12/09 08:21:50;;;;;;;;;;;;;;;21.10;35.82;100043.13;7284298;19;152258;-51
2021/12/09 08:24:19;;;;;;;;;;;;;;;21.14;35.63;100042.13;7281551;19;152386;-51
2021/12/09 08:26:50;;;;;;;;;;;;;;;21.17;35.42;100041.47;7290857;19;152650;-51
2021/12/09 08:29:17;;;;;;;;;;;;;;;21.15;35.39;100043.78;7280651;19;152309;-51
2021/12/09 08:31:44;;;;;;;;;;;;;;;21.12;35.82;100046.44;7283260;19;154089;-51
2021/12/09 08:34:15;;;;;;;;;;;;;;;21.07;35.43;100041.81;7279144;19;154137;-49
2021/12/09 08:36:52;;;;;;;;;;;;;;;21.06;35.87;100039.31;7283933;19;152091;-49
2021/12/09 08:39:19;;;;;;;;;;;;;;;21.06;35.77;100033.72;7284624;19;153173;-51
2021/12/09 08:41:47;;;;;;;;;;;;;;;21.06;35.57;100039.31;7282964;19;152799;-51
2021/12/09 08:44:14;;;;;;;;;;;;;;;21.06;35.52;100039.31;7283085;19;151966;-51
2021/12/09 08:46:41;;;;;;;;;;;;;;;21.10;35.84;100034.69;7281332;19;153211;-51
2021/12/09 08:49:08;;;;;;;;;;;;;;;21.12;35.41;100027.56;7280024;19;154659;-49
2021/12/09 08:51:35;;;;;;;;;;;;;;;21.14;35.63;100035.69;7284108;19;153300;-50
2021/12/09 08:54:04;;;;;;;;;;;;;;;21.16;35.24;100051.06;7281060;19;152801;-49
2021/12/09 08:56:30;;;;;;;;;;;;;;;21.14;35.53;100049.75;7284678;19;152283;-50
2021/12/09 08:58:57;;;;;;;;;;;;;;;21.15;35.09;100046.59;7281327;19;154251;-50
2021/12/09 09:01:24;;;;;;;;;;;;;;;21.16;35.28;100051.06;7282521;19;154337;-51
2021/12/09 09:03:51;;;;;;;;;;;;;;;21.16;35.29;100061.47;7284078;19;152345;-51
2021/12/09 09:06:18;;;;;;;;;;;;;;;21.14;35.38;100052.56;7283701;19;152522;-51
2021/12/09 09:08:46;;;;;;;;;;;;;;;21.13;35.25;100054.53;7275046;19;153678;-50
2021/12/09 09:11:12;;;;;;;;;;;;;;;21.14;35.45;100055.34;7290796;19;152646;-50
2021/12/09 09:13:42;;;;;;;;;;;;;;;21.11;35.27;100048.41;7277664;19;153744;-50
2021/12/09 09:16:09;;;;;;;;;;;;;;;21.13;35.09;100051.72;7280326;19;152185;-50
2021/12/09 09:18:36;;;;;;;;;;;;;;;21.14;35.45;100046.94;7279743;19;152220;-49
2021/12/09 09:21:02;;;;;;;;;;;;;;;21.14;35.38;100046.94;7284809;19;153931;-50
2021/12/09 09:23:30;;;;;;;;;;;;;;;21.18;35.21;100033.88;7287867;19;151914;-49
2021/12/09 09:26:06;;;;;;;;;;;;;;;21.18;35.17;100031.06;7289376;19;152652;-49
2021/12/09 09:28:33;;;;;;;;;;;;;;;21.21;35.25;100041.63;7287002;19;155137;-50
2021/12/09 09:31:03;;;;;;;;;;;;;;;21.19;34.86;100047.59;7297601;19;151622;-50
2021/12/09 09:33:31;;;;;;;;;;;;;;;21.22;35.13;100046.91;7283409;19;153959;-49
2021/12/09 09:35:58;;;;;;;;;;;;;;;21.21;35.34;100041.63;7287011;19;152446;-49
2021/12/09 09:38:25;;;;;;;;;;;;;;;21.20;34.78;100040.81;7287692;19;152719;-49
2021/12/09 09:41:04;;;;;;;;;;;;;;;21.20;35.03;100039.97;7286991;19;152598;-50
2021/12/09 09:46:11;;;;;;;;;;;;;;;21.18;34.73;100057.16;7287835;19;153453;-50
2021/12/09 09:48:39;;;;;;;;;;;;;;;21.17;34.71;100061.13;7284790;19;153446;-50
2021/12/09 09:51:07;;;;;;;;;;;;;;;21.14;34.62;100060.97;7284323;19;152294;-50
2021/12/09 09:53:34;;;;;;;;;;;;;;;21.13;34.86;100065.75;7289408;19;152813;-49
2021/12/09 09:56:04;;;;;;;;;;;;;;;21.10;34.49;100063.59;7288056;19;151873;-50
2021/12/09 09:58:31;;;;;;;;;;;;;;;21.10;34.73;100065.59;7288234;19;153575;-49
2021/12/09 10:00:58;;;;;;;;;;;;;;;21.10;35.11;100059.97;7285871;19;152186;-50
2021/12/09 10:03:29;;;;;;;;;;;;;;;21.10;34.88;100057.97;7284604;19;152117;-49
2021/12/09 10:06:02;;;;;;;;;;;;;;;21.10;34.90;100059.97;7286485;19;151842;-50
2021/12/09 10:08:31;;;;;;;;;;;;;;;21.08;35.07;100057.47;7284030;19;153893;-50
2021/12/09 10:10:59;;;;;;;;;;;;;;;21.10;34.88;100040.31;7287287;19;151912;-49
2021/12/09 10:13:30;;;;;;;;;;;;;;;21.10;34.58;100035.50;7284374;19;151916;-50
2021/12/09 10:16:00;;;;;;;;;;;;;;;21.10;34.88;100045.91;7292533;19;153958;-50
2021/12/09 10:18:31;;;;;;;;;;;;;;;21.08;34.70;100045.41;7284805;19;152450;-50
2021/12/09 10:20:58;;;;;;;;;;;;;;;21.08;34.69;100056.66;7287153;19;153970;-50
2021/12/09 10:23:27;;;;;;;;;;;;;;;21.06;34.98;100053.38;7287730;19;152658;-49
2021/12/09 10:26:12;;;;;;;;;;;;;;;21.04;34.80;100056.50;7287104;19;153340;-49
2021/12/09 10:28:42;;;;;;;;;;;;;;;21.00;34.92;100051.88;7287127;19;154093;-50
2021/12/09 10:31:14;;;;;;;;;;;;;;;20.98;34.68;100052.25;7285135;19;151713;-49
2021/12/09 10:33:57;;;;;;;;;;;;;;;20.95;34.60;100046.44;7285961;19;153674;-50
2021/12/09 10:36:34;;;;;;;;;;;;;;;20.94;34.94;100050.44;7283987;19;154070;-50
2021/12/09 10:39:10;;;;;;;;;;;;;;;20.87;34.79;100048.13;7292321;19;152078;-49
2021/12/09 10:41:37;;;;;;;;;;;;;;;20.85;34.66;100030.75;7286581;19;153645;-50
2021/12/09 10:44:04;;;;;;;;;;;;;;;20.82;34.59;100028.63;7287690;19;152468;-49
2021/12/09 10:46:40;;;;;;;;;;;;;;;20.82;34.59;100040.69;7285671;19;152703;-50
2021/12/09 10:49:12;;;;;;;;;;;;;;;20.79;34.96;100038.56;7283114;19;153993;-50
2021/12/09 10:51:45;;;;;;;;;;;;;;;20.77;34.93;100031.59;7287618;19;151887;-49
2021/12/09 10:54:11;;;;;;;;;;;;;;;20.73;34.57;100023.03;7282980;19;152702;-50
2021/12/09 10:56:38;;;;;;;;;;;;;;;20.70;35.01;100034.09;7283273;19;153400;-50
2021/12/09 10:59:05;;;;;;;;;;;;;;;20.67;34.63;100018.75;7286351;19;152483;-55
2021/12/09 11:01:32;;;;;;;;;;;;;;;20.63;34.85;100017.75;7293140;19;152874;-49
2021/12/09 11:04:00;;;;;;;;;;;;;;;20.61;34.91;100022.88;7286242;19;151874;-50
2021/12/09 11:06:28;;;;;;;;;;;;;;;20.59;34.69;100013.97;7286371;19;154368;-50
2021/12/09 11:08:56;;;;;;;;;;;;;;;20.56;34.87;100013.81;7282407;19;153927;-50
2021/12/09 11:11:33;;;;;;;;;;;;;;;20.54;34.92;100005.72;7286108;19;153679;-49
2021/12/09 11:14:03;;;;;;;;;;;;;;;20.52;35.18;100015.63;7283024;19;152821;-50
2021/12/09 11:16:30;;;;;;;;;;;;;;;20.51;34.95;100014.81;7284624;19;155013;-49
2021/12/09 11:19:05;;;;;;;;;;;;;;;20.48;35.22;100017.44;7284975;19;151784;-49
2021/12/09 11:21:37;;;;;;;;;;;;;;;20.44;35.10;100016.47;7285110;19;153118;-50
2021/12/09 11:24:08;;;;;;;;;;;;;;;20.40;34.87;100025.53;7290805;19;151801;-49
2021/12/09 11:26:55;;;;;;;;;;;;;;;20.37;34.90;100028.16;7284993;19;152113;-49
2021/12/09 11:29:24;;;;;;;;;;;;;;;20.34;35.00;100034.44;7281054;19;152667;-50
2021/12/09 11:32:01;;;;;;;;;;;;;;;20.31;34.89;100021.06;7285694;19;151465;-49
2021/12/09 11:34:31;;;;;;;;;;;;;;;20.29;34.99;100029.78;7282820;19;153258;-49
2021/12/09 11:37:03;;;;;;;;;;;;;;;20.25;34.99;100023.19;7285105;19;154421;-50
2021/12/09 11:39:35;;;;;;;;;;;;;;;20.23;35.04;100033.06;7285526;19;154199;-49
2021/12/09 11:42:11;;;;;;;;;;;;;;;20.22;35.10;100025.81;7255561;19;153425;-49
2021/12/09 11:44:57;;;;;;;;;;;;;;;20.17;35.53;100017.59;7284136;19;154694;-49
2021/12/09 11:47:24;;;;;;;;;;;;;;;20.12;35.50;100015.75;7283350;19;152506;-49
2021/12/09 11:50:07;;;;;;;;;;;;;;;20.07;35.29;100017.91;7281897;19;152389;-50
2021/12/09 11:52:36;;;;;;;;;;;;;;;20.04;35.43;100013.75;7281876;19;152332;-49
2021/12/09 11:55:05;;;;;;;;;;;;;;;20.02;35.44;100016.06;7282902;19;152781;-49
2021/12/09 12:13:46;;;;;;;;;;;;;;;19.82;35.82;99994.25;7281861;19;152218;-49
2021/12/09 12:16:24;;;;;;;;;;;;;;;19.76;35.86;99981.56;7283246;19;153724;-49
2021/12/09 12:18:59;;;;;;;;;;;;;;;19.72;35.68;99978.56;7280455;19;152971;-49
2021/12/09 12:24:08;;;;;;;;;;;;;;;19.65;36.06;99974.59;7283544;19;153000;-50
2021/12/09 12:34:50;;;;;;;;;;;;;;;19.49;35.72;99974.22;7279191;19;152202;-49
2021/12/09 12:37:42;;;;;;;;;;;;;;;19.47;36.02;99979.34;7280734;19;152023;-49
2021/12/09 12:40:11;;;;;;;;;;;;;;;19.47;35.83;99982.16;7273343;19;152756;-49
2021/12/09 12:42:50;;;;;;;;;;;;;;;19.48;36.10;99976.22;7279857;19;152338;-50
2021/12/09 12:50:22;;;;;;;;;;;;;;;19.57;35.97;99958.63;7280743;19;151908;-49
2021/12/09 12:53:17;;;;;;;;;;;;;;;19.61;36.27;99954.81;7280837;19;153179;-49
2021/12/09 12:56:04;;;;;;;;;;;;;;;19.68;36.00;99955.16;7283358;19;154919;-50
2021/12/09 12:58:31;;;;;;;;;;;;;;;19.75;36.01;99957.50;7280986;19;153026;-49
2021/12/09 13:01:13;;;;;;;;;;;;;;;19.82;36.29;99955.84;7279434;19;153348;-50
2021/12/09 13:03:46;;;;;;;;;;;;;;;19.89;35.81;99944.16;7281283;19;151845;-49
2021/12/09 13:06:37;;;;;;;;;;;;;;;19.93;36.12;99934.75;7282176;19;153409;-50
2021/12/09 13:09:33;;;;;;;;;;;;;;;20.01;35.98;99930.31;7263874;19;155866;-50
2021/12/09 13:12:05;;;;;;;;;;;;;;;20.10;35.92;99924.69;7283951;19;151844;-50
2021/12/09 13:14:36;;;;;;;;;;;;;;;20.14;35.82;99934.09;7280352;19;152760;-50
2021/12/09 13:22:11;;;;;;;;;;;;;;;20.29;35.77;99926.00;7282105;19;153323;-50
2021/12/09 13:30:29;;;;;;;;;;;;;;;20.41;35.67;99917.75;7278175;19;153520;-49